Weather observations for the past three days for
Peoria - General Downing-Peoria International Airport
Metric (Imperial)
Date Time (cdt) Wind (kph) Vis. (km) Weather Sky Cond. Temperature (ºC) Relative Humidity Wind Chill (°C) Heat Index (°C) Pressure Precipitation (cm)
Air Dwpt 6 hour altimeter (cm) sea level (mb) 1 hr 3 hr 6 hr
Max. Min.
31 05:54 S 11 16.09 Fair CLR 22.2 17.2 73% 76.1 1014.0
31 04:54 S 11 16.09 Fair CLR 22.2 17.2 73% 76.1 1014.0
31 03:54 S 11 16.09 Fair CLR 22.2 17.2 73% 76.1 1013.9
31 02:54 S 9 16.09 Fair CLR 22.2 17.2 73% 76.1 1013.8
31 01:54 S 11 16.09 Fair CLR 22.8 17.2 71% 76.12 1014.1
31 00:54 S 9 16.09 Fair CLR 23.3 17.2 28.9 23.3 69% 76.15 1014.5
30 23:54 S 9 16.09 Fair CLR 24.4 17.8 67% 25 76.15 1014.5
30 22:54 S 6 16.09 Fair CLR 25 17.8 64% 26 76.15 1014.7
30 21:54 SE 9 16.09 Fair CLR 26.1 17.8 60% 27 76.15 1014.5
30 20:54 SE 13 16.09 Fair CLR 27.2 18.3 58% 28 76.12 1014.5
30 19:54 SE 11 16.09 Fair CLR 27.8 20 63% 29 76.1 1014.2
30 18:54 SE 13 16.09 Fair CLR 28.9 20.6 31.1 27.2 61% 31 76.1 1013.9
30 17:54 E 7 16.09 Fair CLR 30 21.7 61% 33 76.12 1014.2
30 16:54 S 9 16.09 Fair CLR 31.1 20.6 54% 34 76.1 1014.1
30 15:54 S 9 16.09 Fair CLR 30.6 20 53% 33 76.12 1014.3
30 14:54 S 13 16.09 Fair CLR 30 20.6 57% 32 76.15 1014.7
30 13:54 S 20 16.09 Fair CLR 29.4 20.6 59% 32 76.15 1014.7
30 12:54 S 17 16.09 Fair CLR 27.2 20 27.8 20.6 65% 29 76.17 1014.9
30 11:54 S 9 16.09 Fair CLR 26.7 18.9 62% 28 76.25 1016.1
30 10:54 SW 15 16.09 Mostly Cloudy BKN110 26.7 18.3 60% 28 76.28 1016.5
30 09:54 S 17 16.09 Fair CLR 23.3 18.9 76% 76.17 1015.2
30 08:54 S 7 16.09 Light Rain FEW075 FEW095 BKN120 22.2 18.3 79% 76.25 1015.9
30 07:54 SW 9 16.09 Mostly Cloudy BKN110 21.7 17.8 79% 76.25 1016.2
30 06:54 S 13 16.09 Mostly Cloudy BKN110 20.6 17.8 22.2 20.6 84% 76.17 1014.9
30 05:54 S 13 16.09 Mostly Cloudy BKN110 21.1 17.8 82% 76.15 1014.8
30 04:54 S 15 16.09 A Few Clouds FEW049 FEW110 21.7 17.8 79% 76.15 1014.8
30 03:54 S 15 16.09 Fair CLR 21.7 17.8 79% 76.15 1014.8
30 02:54 S 17 16.09 Fair CLR 21.7 17.8 79% 76.17 1014.9
30 01:54 S 17 16.09 Fair CLR 22.2 17.8 76% 76.2 1015.5
30 00:54 S 20 16.09 Fair CLR 22.2 17.8 25.6 22.2 76% 76.23 1015.6
29 23:54 S 20 16.09 Fair CLR 22.8 17.8 74% 76.25 1016.0
29 22:54 S 19 16.09 Fair CLR 23.3 17.8 71% 76.25 1016.0
29 20:54 S 17 16.09 Fair CLR 23.9 17.8 69% 25 76.23 1015.7
29 19:54 S 11 16.09 Fair CLR 24.4 18.3 69% 25 76.23 1015.7
29 17:54 S 13 16.09 A Few Clouds FEW095 26.1 17.8 60% 27 76.25 1016.0
29 15:54 S 17 16.09 Fair CLR 26.7 19.4 64% 28 76.3 1016.9
29 14:54 S 17 16.09 Fair CLR 26.7 18.3 60% 28 76.4 1018.1
29 13:54 S 17 16.09 Fair CLR 27.2 18.3 58% 28 76.45 1019.0
29 12:54 S 15 16.09 Fair CLR 26.1 18.3 26.1 17.2 62% 27 76.5 1019.6
29 11:54 S 13 16.09 Fair CLR 25 17.8 64% 26 76.53 1020.0
29 10:54 S 15 16.09 Fair CLR 23.9 17.2 66% 25 76.58 1020.5
29 09:54 S 11 16.09 Fair CLR 22.2 16.7 71% 76.58 1020.6
29 08:54 S 9 16.09 Fair CLR 20 16.7 81% 76.58 1020.7
29 07:54 S 6 16.09 Fair CLR 19.4 16.1 81% 76.61 1020.8
29 06:54 Calm 16.09 Fair CLR 17.2 15.6 18.9 16.7 90% 76.56 1020.2
29 05:54 Calm 16.09 Fair CLR 17.2 16.1 93% 76.53 1020.0
29 04:54 Calm 16.09 Fair CLR 17.2 16.1 93% 76.53 1019.8
29 03:54 Calm 16.09 Fair CLR 17.8 15.6 87% 76.5 1019.5
29 01:54 Calm 16.09 Fair CLR 17.8 16.1 90% 76.56 1020.1
29 00:54 Calm 16.09 Fair CLR 18.3 16.1 25 18.3 87% 76.56 1020.0
28 23:54 Calm 16.09 Fair CLR 18.9 16.7 87% 76.56 1020.1
28 22:54 Calm 16.09 Fair CLR 19.4 17.2 87% 76.53 1020.0
28 21:54 Calm 16.09 Fair CLR 20 16.7 81% 76.53 1019.8
28 20:54 Calm 16.09 Fair CLR 21.1 17.2 79% 76.5 1019.6
28 19:54 Calm 16.09 Light Rain CLR 22.8 16.7 69% 76.48 1019.1
28 18:54 Calm 16.09 Fair CLR 25.6 17.2 28.3 25.6 60% 27 76.48 1019.1
28 17:54 NW 7 16.09 Fair CLR 27.2 14.4 45% 27 76.48 1019.1
28 16:54 NW 6 16.09 Fair CLR 27.2 13.9 44% 27 76.48 1019.3
28 15:54 Vrbl 9 16.09 Fair CLR 27.8 13.3 41% 28 76.5 1019.6
28 14:54 W 9 16.09 Fair CLR 28.3 13.9 41% 28 76.56 1020.1
28 13:54 W 7 16.09 Fair CLR 27.8 13.9 43% 28 76.58 1020.7
28 12:54 NW 9 16.09 Mostly Cloudy BKN055 27.8 14.4 27.8 17.2 44% 28 76.61 1020.8
28 08:54 Calm 16.09 Fair CLR 21 16 73% 76.61 0.0
28 07:54 Calm 16.09 Fair CLR 19 17 88% 76.58 0.0
28 06:54 Calm 16.09 Fair CLR 17 16 94% 76.56 0.0
Date Time (cdt) Wind (kph) Vis. (km) Weather Sky Cond. Air Dwpt Max. Min. Relative Humidity Wind Chill (°C) Heat Index (°C) altimeter (cm) sea level (mb) 1 hr 3 hr 6 hr
6 hour
Temperature (ºC) Pressure Precipitation (cm)